KTIX/TIX METAR and TAF weather

Enter ICAO airport designator
Station Type Date Time Source
KTIX METAR 2021/03/02 13:47 UTC NOAA

KTIX 021347Z 34005KT 7SM SCT023 SCT035 BKN045 22/18 A3011


Station Type Date Time Source
KTIX Decoded METAR 2021/03/02 13:47 UTC NOAA

Titusville, FL, United States (KTIX) 28-31N 080-48W
Mar 02, 2021 - 08:47 AM EST / 2021.03.02 1347 UTC
Wind: from the NNW (340 degrees) at 6 MPH (5 KT):0
Visibility: 7 mile(s):0
Sky conditions: mostly cloudy
Temperature: 71 F (22 C)
Dew Point: 64 F (18 C)
Relative Humidity: 78%
Pressure (altimeter): 30.11 in. Hg (1019 hPa)
ob: KTIX 021347Z 34005KT 7SM SCT023 SCT035 BKN045 22/18 A3011
cycle: 14

Station Type Date Time Source
KTIX TAF 2021/03/02 12:40 UTC NOAA

TAF KTIX 021138Z 0212/0312 35006KT P6SM BKN025 BKN040
FM021500 08011KT P6SM BKN025 OVC040
FM030100 04005KT P6SM SCT025 BKN040

Example: see airport list